createdAt,value
2018-03-28T00:00:27.611Z,43.42
2018-03-28T00:01:28.083Z,43.46
2018-03-28T00:02:28.556Z,43.48
2018-03-28T00:03:29.028Z,43.50
2018-03-28T00:04:29.501Z,43.52
2018-03-28T00:05:29.971Z,43.55
2018-03-28T00:06:30.444Z,43.56
2018-03-28T00:07:30.916Z,43.55
2018-03-28T00:08:31.387Z,43.52
2018-03-28T00:09:31.858Z,43.54
2018-03-28T00:10:32.331Z,43.54
2018-03-28T00:11:32.803Z,43.51
2018-03-28T00:12:33.273Z,43.51
2018-03-28T00:13:33.751Z,43.53
2018-03-28T00:14:34.220Z,43.53
2018-03-28T00:15:34.692Z,43.51
2018-03-28T00:16:35.211Z,43.52
2018-03-28T00:17:35.633Z,43.51
2018-03-28T00:18:36.105Z,43.48
2018-03-28T00:19:36.576Z,43.49
2018-03-28T00:20:37.050Z,43.47
2018-03-28T00:21:37.520Z,43.49
2018-03-28T00:22:37.993Z,43.49
2018-03-28T00:23:38.467Z,43.46
2018-03-28T00:24:38.937Z,43.47
2018-03-28T00:25:39.413Z,43.49
2018-03-28T00:26:39.880Z,43.50
2018-03-28T00:27:40.352Z,43.51
2018-03-28T00:28:41.027Z,43.50
2018-03-28T00:29:41.294Z,43.52
2018-03-28T00:30:41.767Z,43.52
2018-03-28T00:31:42.239Z,43.52
2018-03-28T00:32:42.709Z,43.55
2018-03-28T00:33:43.183Z,43.54
2018-03-28T00:34:43.653Z,43.52
2018-03-28T00:35:44.126Z,43.56
2018-03-28T00:36:44.806Z,43.53
2018-03-28T00:37:45.071Z,43.53
2018-03-28T00:38:45.541Z,43.54
2018-03-28T00:39:46.013Z,43.58
2018-03-28T00:40:46.484Z,43.56
2018-03-28T00:41:46.955Z,43.52
2018-03-28T00:42:47.426Z,43.50
2018-03-28T00:43:47.897Z,43.49
2018-03-28T00:44:48.369Z,43.45
2018-03-28T00:45:48.840Z,43.42
2018-03-28T00:46:49.314Z,43.40
2018-03-28T00:47:49.788Z,43.36
2018-03-28T00:48:50.258Z,43.34
2018-03-28T00:50:51.409Z,43.32
2018-03-28T00:51:51.874Z,43.29
2018-03-28T00:52:52.141Z,43.29
2018-03-28T00:53:52.613Z,43.25
2018-03-28T00:54:53.086Z,43.22
2018-03-28T00:55:53.558Z,43.24
2018-03-28T00:56:54.028Z,43.22
2018-03-28T00:57:54.500Z,43.25
2018-03-28T00:58:54.973Z,43.25
2018-03-28T00:59:55.443Z,43.23
2018-03-28T01:00:55.915Z,43.22
2018-03-28T01:01:56.391Z,43.22
2018-03-28T01:02:56.859Z,43.23
2018-03-28T01:03:57.330Z,43.25
2018-03-28T01:05:58.273Z,43.25
2018-03-28T01:06:58.744Z,43.22
2018-03-28T01:07:59.216Z,43.28
2018-03-28T01:08:59.685Z,43.28
2018-03-28T01:10:00.162Z,43.33
2018-03-28T01:11:00.630Z,43.33
2018-03-28T01:12:01.157Z,43.32
2018-03-28T01:13:01.574Z,43.33
2018-03-28T01:14:02.045Z,43.35
2018-03-28T01:15:02.517Z,43.38
2018-03-28T01:16:02.987Z,43.37
2018-03-28T01:17:03.458Z,43.40
2018-03-28T01:18:03.931Z,43.40
2018-03-28T01:19:04.402Z,43.40
2018-03-28T01:20:04.873Z,43.41
2018-03-28T01:21:05.345Z,43.41
2018-03-28T01:22:05.815Z,43.43
2018-03-28T01:23:06.287Z,43.43
2018-03-28T01:24:06.764Z,43.42
2018-03-28T01:25:07.234Z,43.45
2018-03-28T01:26:07.703Z,43.46
2018-03-28T01:27:08.173Z,43.47
2018-03-28T01:28:08.646Z,43.48
2018-03-28T01:29:09.114Z,43.46
2018-03-28T01:30:09.585Z,43.47
2018-03-28T01:31:10.060Z,43.47
2018-03-28T01:32:10.731Z,43.46
2018-03-28T01:33:11.001Z,43.49
2018-03-28T01:34:11.472Z,43.50
2018-03-28T01:35:11.944Z,43.56
2018-03-28T01:36:12.416Z,43.60
2018-03-28T01:37:12.938Z,43.68
2018-03-28T01:38:13.359Z,43.66
2018-03-28T01:39:13.830Z,43.68
2018-03-28T01:40:14.300Z,43.70
2018-03-28T01:41:14.772Z,43.76
2018-03-28T01:42:15.249Z,43.78
2018-03-28T01:43:15.715Z,43.81
2018-03-28T01:44:16.186Z,43.82
2018-03-28T01:45:16.863Z,43.86
2018-03-28T01:46:17.130Z,43.90
2018-03-28T01:47:17.601Z,43.94
2018-03-28T01:48:18.074Z,43.97
2018-03-28T01:49:18.543Z,44.01
2018-03-28T01:50:19.016Z,44.05
2018-03-28T01:51:19.486Z,44.10
2018-03-28T01:52:19.961Z,44.13
2018-03-28T01:53:20.429Z,44.14
2018-03-28T01:54:20.903Z,44.15
2018-03-28T01:55:21.373Z,44.15
2018-03-28T01:56:22.047Z,44.15
2018-03-28T01:57:22.315Z,44.14
2018-03-28T01:58:22.788Z,44.18
2018-03-28T01:59:23.262Z,44.19
2018-03-28T02:00:23.729Z,44.23
2018-03-28T02:01:24.204Z,44.24
2018-03-28T02:02:24.673Z,44.23
2018-03-28T02:03:25.143Z,44.24
2018-03-28T02:04:25.618Z,44.22
2018-03-28T02:05:26.086Z,44.17
2018-03-28T02:06:26.559Z,44.16
2018-03-28T02:07:27.081Z,44.14
2018-03-28T02:08:27.503Z,44.14
2018-03-28T02:09:27.974Z,44.11
2018-03-28T02:10:28.445Z,44.12
2018-03-28T02:11:30.116Z,44.07
2018-03-28T02:12:29.390Z,44.02
2018-03-28T02:16:31.277Z,44.02
2018-03-28T02:19:32.893Z,44.00
2018-03-28T02:20:33.161Z,43.97
2018-03-28T02:21:33.630Z,43.97
2018-03-28T02:22:34.103Z,43.93
2018-03-28T02:23:34.978Z,43.92
2018-03-28T02:24:35.247Z,43.90
2018-03-28T02:26:36.191Z,43.88
2018-03-28T02:27:36.864Z,43.82
2018-03-28T02:28:36.933Z,43.82
2018-03-28T02:29:37.605Z,43.84
2018-03-28T02:30:37.874Z,43.83
2018-03-28T02:31:38.351Z,43.81
2018-03-28T02:32:39.022Z,43.79
2018-03-28T02:33:39.287Z,43.74
2018-03-28T02:34:39.759Z,43.73
2018-03-28T02:36:40.773Z,43.70
2018-03-28T02:37:41.173Z,43.71
2018-03-28T02:39:42.147Z,43.72
2018-03-28T02:41:43.057Z,43.74
2018-03-28T02:42:43.532Z,43.74
2018-03-28T02:43:44.205Z,43.78
2018-03-28T02:44:44.476Z,43.80
2018-03-28T02:45:45.158Z,43.86
2018-03-28T02:47:46.896Z,43.83
2018-03-28T02:49:46.838Z,43.86
2018-03-28T02:50:47.308Z,43.83
2018-03-28T02:51:47.979Z,43.81
2018-03-28T03:10:33.969Z,43.83
2018-03-28T03:13:37.857Z,43.85
2018-03-28T03:20:37.661Z,43.91
2018-03-28T04:25:13.322Z,43.98
2018-03-28T04:26:13.586Z,43.99
2018-03-28T04:29:15.000Z,44.00
2018-03-28T04:30:15.675Z,43.99
2018-03-28T04:31:16.143Z,43.99
2018-03-28T05:58:57.614Z,44.33
2018-03-28T05:59:59.777Z,44.29
2018-03-28T06:17:59.427Z,44.39
2018-03-28T06:20:00.370Z,44.42
2018-03-28T06:21:01.106Z,44.43
2018-03-28T06:22:00.965Z,44.36
2018-03-28T06:23:01.242Z,44.44
2018-03-28T06:24:01.711Z,44.48
2018-03-28T06:25:02.181Z,44.47
2018-03-28T06:28:03.588Z,44.49
2018-03-28T06:29:04.063Z,44.51
2018-03-28T06:30:04.740Z,44.54
2018-03-28T06:31:05.202Z,44.57
2018-03-28T06:32:05.477Z,44.56
2018-03-28T06:33:05.946Z,44.58
2018-03-28T06:34:06.417Z,44.59
2018-03-28T06:35:06.889Z,44.59
2018-03-28T06:36:07.408Z,44.56
2018-03-28T06:37:07.828Z,44.56
2018-03-28T06:38:08.297Z,44.56
2018-03-28T06:39:08.774Z,44.59
2018-03-28T06:40:09.241Z,44.61
2018-03-28T06:42:10.385Z,44.68
2018-03-28T06:43:10.651Z,44.71
2018-03-28T06:44:11.123Z,44.71
2018-03-28T06:45:11.594Z,44.73
2018-03-28T06:46:12.066Z,44.71
2018-03-28T06:47:12.568Z,44.68
2018-03-28T06:48:13.008Z,44.66
2018-03-28T06:50:13.950Z,44.61
2018-03-28T06:51:14.422Z,44.61
2018-03-28T06:54:15.833Z,44.49
2018-03-28T06:55:16.304Z,44.45
2018-03-28T06:56:16.773Z,44.44
2018-03-28T06:57:17.245Z,44.42
2018-03-28T06:58:17.766Z,44.41
2018-03-28T06:59:18.191Z,44.39
2018-03-28T07:00:18.659Z,44.36
2018-03-28T07:01:19.131Z,44.34
2018-03-28T07:02:19.599Z,44.37
2018-03-28T07:04:20.540Z,44.36
2018-03-28T07:05:21.012Z,44.38
2018-03-28T07:06:21.483Z,44.40
2018-03-28T07:07:21.953Z,44.38
2018-03-28T07:08:22.420Z,44.38
2018-03-28T07:09:22.895Z,44.34
2018-03-28T07:10:23.358Z,44.35
2018-03-28T07:11:23.837Z,44.36
2018-03-28T07:12:24.308Z,44.37
2018-03-28T07:13:24.775Z,44.37
2018-03-28T07:14:25.251Z,44.35
2018-03-28T07:15:25.721Z,44.36
2018-03-28T07:16:26.191Z,44.34
2018-03-28T07:17:26.661Z,44.33
2018-03-28T07:18:27.183Z,44.31
2018-03-28T07:20:28.074Z,44.31
2018-03-28T07:21:28.540Z,44.28
2018-03-28T07:22:29.011Z,44.25
2018-03-28T07:23:41.630Z,44.28
2018-03-28T07:24:29.958Z,44.27
2018-03-28T07:25:30.424Z,44.27
2018-03-28T07:26:30.900Z,44.25
2018-03-28T07:27:31.380Z,44.28
2018-03-28T07:28:31.835Z,44.28
2018-03-28T07:29:32.312Z,44.27
2018-03-28T07:30:32.782Z,44.29
2018-03-28T07:31:33.255Z,44.28
2018-03-28T07:32:33.726Z,44.29
2018-03-28T07:33:34.246Z,44.32
2018-03-28T07:34:34.661Z,44.33
2018-03-28T07:35:35.139Z,44.36
2018-03-28T07:37:36.079Z,44.43
2018-03-28T07:39:38.440Z,44.46
2018-03-28T07:40:37.492Z,44.49
2018-03-28T07:41:37.958Z,44.47
2018-03-28T07:44:39.375Z,44.57
2018-03-28T07:45:39.846Z,44.59
2018-03-28T07:46:40.313Z,44.63
2018-03-28T07:47:40.788Z,44.62
2018-03-28T07:48:41.259Z,44.66
2018-03-28T07:49:41.732Z,44.68
2018-03-28T07:50:42.202Z,44.69
2018-03-28T07:51:42.672Z,44.66
2018-03-28T07:52:43.144Z,44.63
2018-03-28T07:53:43.615Z,44.72
2018-03-28T07:54:44.138Z,44.75
2018-03-28T07:55:44.559Z,44.78
2018-03-28T07:56:45.027Z,44.80
2018-03-28T07:57:45.494Z,44.79
2018-03-28T07:58:45.970Z,44.79
2018-03-28T07:59:46.487Z,44.76
2018-03-28T08:00:46.911Z,44.77
2018-03-28T08:01:47.384Z,44.80
2018-03-28T08:02:47.853Z,44.81
2018-03-28T08:03:48.320Z,44.80
2018-03-28T08:04:48.846Z,44.80
2018-03-28T08:05:49.268Z,44.81
2018-03-28T08:06:49.740Z,44.85
2018-03-28T08:07:50.210Z,44.87
2018-03-28T08:08:50.681Z,44.89
2018-03-28T08:09:51.202Z,44.90
2018-03-28T08:10:51.626Z,44.94
2018-03-28T08:11:52.095Z,44.97
2018-03-28T08:12:52.565Z,44.96
2018-03-28T08:13:53.037Z,44.96
2018-03-28T08:14:53.560Z,45.02
2018-03-28T08:15:53.980Z,45.03
2018-03-28T08:16:54.451Z,45.01
2018-03-28T08:17:54.923Z,45.03
2018-03-28T08:18:55.396Z,45.02
2018-03-28T08:19:55.918Z,45.02
2018-03-28T08:21:56.808Z,44.98
2018-03-28T08:22:57.283Z,44.97
2018-03-28T08:23:57.746Z,44.95
2018-03-28T08:24:58.273Z,44.93
2018-03-28T08:25:58.692Z,44.93
2018-03-28T08:26:59.166Z,44.90
2018-03-28T08:27:59.636Z,44.91
2018-03-28T08:29:00.106Z,44.90
2018-03-28T08:30:00.580Z,44.88
2018-03-28T08:31:01.055Z,44.91
2018-03-28T08:32:01.522Z,44.90
2018-03-28T08:33:01.992Z,44.92
2018-03-28T08:34:02.463Z,44.88
2018-03-28T08:36:03.407Z,44.89
2018-03-28T08:37:03.924Z,44.91
2018-03-28T08:38:04.349Z,44.95
2018-03-28T08:39:04.822Z,44.97
2018-03-28T08:40:05.345Z,44.97
2018-03-28T08:41:05.765Z,45.00
2018-03-28T08:42:06.235Z,45.04
2018-03-28T08:43:06.711Z,45.06
2018-03-28T08:44:07.178Z,45.05
2018-03-28T08:45:19.691Z,45.07
2018-03-28T08:46:08.122Z,45.05
2018-03-28T08:47:08.594Z,45.03
2018-03-28T08:48:09.066Z,45.04
2018-03-28T08:49:09.536Z,45.09
2018-03-28T08:50:21.701Z,45.06
2018-03-28T08:51:10.480Z,45.06
2018-03-28T08:52:10.992Z,45.05
2018-03-28T08:53:11.422Z,45.05
2018-03-28T08:55:12.365Z,45.00
2018-03-28T08:57:13.310Z,44.97
2018-03-28T08:58:13.781Z,44.96
2018-03-28T08:59:14.253Z,44.96
2018-03-28T09:00:14.726Z,44.98
2018-03-28T09:02:15.667Z,45.00
2018-03-28T09:04:16.616Z,45.04
2018-03-28T09:05:17.082Z,45.09
2018-03-28T09:06:17.555Z,45.14
2018-03-28T09:07:18.027Z,45.14
2018-03-28T09:08:18.499Z,45.14
2018-03-28T09:09:18.966Z,45.17
2018-03-28T09:10:19.644Z,45.18
2018-03-28T09:12:20.386Z,45.22
2018-03-28T09:13:20.857Z,45.26
2018-03-28T09:14:21.325Z,45.26
2018-03-28T09:15:21.854Z,45.26
2018-03-28T09:16:22.275Z,45.32
2018-03-28T09:17:22.745Z,45.34
2018-03-28T09:18:23.212Z,45.38
2018-03-28T09:19:23.688Z,45.39
2018-03-28T09:20:24.161Z,45.38
2018-03-28T09:21:24.632Z,45.39
2018-03-28T09:22:25.098Z,45.39
2018-03-28T09:23:25.576Z,45.45
2018-03-28T09:24:26.049Z,45.48
2018-03-28T09:25:26.569Z,45.46
2018-03-28T09:26:26.994Z,45.48
2018-03-28T09:27:27.458Z,45.49
2018-03-28T09:28:27.932Z,45.49
2018-03-28T09:29:28.405Z,45.50
2018-03-28T09:30:29.025Z,45.52
2018-03-28T09:31:29.346Z,45.52
2018-03-28T09:32:29.824Z,45.55
2018-03-28T09:33:30.295Z,45.57
2018-03-28T09:34:30.767Z,45.56
2018-03-28T09:35:31.441Z,45.55
2018-03-28T09:36:31.710Z,45.54
2018-03-28T09:37:32.183Z,45.53
2018-03-28T09:38:32.657Z,45.50
2018-03-28T09:39:33.128Z,45.50
2018-03-28T09:41:34.074Z,45.46
2018-03-28T09:42:34.538Z,45.42
2018-03-28T09:44:35.487Z,45.54
2018-03-28T09:45:35.966Z,45.56
2018-03-28T09:47:36.906Z,45.54
2018-03-28T09:48:37.379Z,45.54
2018-03-28T09:49:37.848Z,45.54
2018-03-28T09:50:38.315Z,45.56
2018-03-28T09:51:38.798Z,45.55
2018-03-28T09:52:39.266Z,45.53
2018-03-28T09:53:39.737Z,45.52
2018-03-28T09:54:40.211Z,45.53
2018-03-28T09:55:40.678Z,45.54
2018-03-28T09:57:41.627Z,45.62
2018-03-28T09:58:42.103Z,45.62
2018-03-28T09:59:42.573Z,45.65
2018-03-28T10:00:43.040Z,45.73
2018-03-28T10:01:43.568Z,45.81
2018-03-28T10:02:43.990Z,45.88
2018-03-28T10:03:44.464Z,45.89
2018-03-28T10:04:44.936Z,45.90
2018-03-28T10:05:45.405Z,45.98
2018-03-28T10:06:45.876Z,46.01
2018-03-28T10:08:46.827Z,45.98
2018-03-28T10:09:47.324Z,45.98
2018-03-28T10:10:47.765Z,45.98
2018-03-28T10:11:48.294Z,45.93
2018-03-28T10:12:48.715Z,45.87
2018-03-28T10:13:49.187Z,45.83
2018-03-28T10:14:49.661Z,45.76
2018-03-28T10:15:50.134Z,45.82
2018-03-28T10:16:50.608Z,45.81
2018-03-28T10:17:51.078Z,45.75
2018-03-28T10:18:51.552Z,45.68
2018-03-28T10:19:52.026Z,45.55
2018-03-28T10:20:52.496Z,45.50
2018-03-28T10:21:53.171Z,45.53
2018-03-28T10:22:53.436Z,45.56
2018-03-28T10:23:53.916Z,45.55
2018-03-28T10:24:54.390Z,45.54
2018-03-28T10:25:54.861Z,45.56
2018-03-28T10:26:55.339Z,45.57
2018-03-28T10:27:55.806Z,45.62
2018-03-28T10:28:56.281Z,45.61
2018-03-28T10:29:56.754Z,45.60
2018-03-28T10:30:57.226Z,45.62
2018-03-28T10:31:57.699Z,45.77
2018-03-28T10:32:58.168Z,45.83
2018-03-28T10:33:58.652Z,45.87
2018-03-28T10:34:59.119Z,45.78
2018-03-28T10:35:59.593Z,45.82
2018-03-28T10:37:00.118Z,45.76
2018-03-28T10:38:00.539Z,45.77
2018-03-28T10:39:01.011Z,45.77
2018-03-28T10:40:01.487Z,45.70
2018-03-28T10:41:01.960Z,45.66
2018-03-28T10:42:13.813Z,45.60
2018-03-28T10:43:02.903Z,45.59
2018-03-28T10:44:03.376Z,45.68
2018-03-28T10:45:03.844Z,45.84
2018-03-28T10:46:04.326Z,46.00
2018-03-28T10:48:05.270Z,46.04
2018-03-28T10:49:05.741Z,46.08
2018-03-28T10:50:06.421Z,45.97
2018-03-28T10:51:06.690Z,45.99
2018-03-28T10:52:07.160Z,45.96
2018-03-28T10:53:07.690Z,45.89
2018-03-28T10:54:08.308Z,45.94
2018-03-28T10:55:08.581Z,45.95
2018-03-28T10:56:09.054Z,45.97
2018-03-28T10:57:09.529Z,45.96
2018-03-28T10:58:10.056Z,46.07
2018-03-28T11:00:10.957Z,46.01
2018-03-28T11:01:11.423Z,45.99
2018-03-28T11:02:11.894Z,45.99
2018-03-28T11:03:12.371Z,46.03
2018-03-28T11:04:12.836Z,46.00
2018-03-28T11:05:13.315Z,45.97
2018-03-28T11:06:13.794Z,45.91
2018-03-28T11:07:14.665Z,45.77
2018-03-28T11:08:14.991Z,45.81
2018-03-28T11:09:15.204Z,45.76
2018-03-28T11:10:15.705Z,45.70
2018-03-28T11:11:16.156Z,45.73
2018-03-28T11:12:16.629Z,45.70
2018-03-28T11:13:17.156Z,45.80
2018-03-28T11:14:17.575Z,45.81
2018-03-28T11:15:18.050Z,45.74
2018-03-28T11:16:18.523Z,45.81
2018-03-28T11:18:19.674Z,45.81
2018-03-28T11:19:20.145Z,45.86
2018-03-28T11:20:20.419Z,45.86
2018-03-28T11:21:20.892Z,45.89
2018-03-28T11:23:21.888Z,46.09
2018-03-28T11:24:22.312Z,45.97
2018-03-28T11:25:22.787Z,45.87
2018-03-28T11:27:23.771Z,45.87
2018-03-28T11:29:24.683Z,45.98
2018-03-28T11:30:25.154Z,45.92
2018-03-28T11:31:25.831Z,45.89
2018-03-28T11:32:26.300Z,45.99
2018-03-28T11:36:27.998Z,46.23
2018-03-28T11:37:28.466Z,46.29
2018-03-28T11:38:28.942Z,46.30
2018-03-28T11:39:29.420Z,46.30
2018-03-28T11:40:29.893Z,46.28
2018-03-28T11:41:30.371Z,46.31
2018-03-28T11:42:30.839Z,46.29
2018-03-28T11:44:31.788Z,46.06
2018-03-28T11:45:32.267Z,46.12
2018-03-28T11:46:32.740Z,46.08
2018-03-28T11:47:33.204Z,46.09
2018-03-28T11:48:33.731Z,46.06
2018-03-28T11:50:34.630Z,46.12
2018-03-28T11:51:35.099Z,46.28
2018-03-28T11:52:35.579Z,46.36
2018-03-28T11:53:36.052Z,46.35
2018-03-28T11:54:36.525Z,46.37
2018-03-28T11:55:37.001Z,46.29
2018-03-28T11:56:37.472Z,46.14
2018-03-28T11:57:37.950Z,46.12
2018-03-28T11:58:38.421Z,46.04
2018-03-28T11:59:38.899Z,46.04
2018-03-28T12:00:39.368Z,46.05
2018-03-28T12:01:39.843Z,46.07
2018-03-28T12:02:40.317Z,46.04
2018-03-28T12:03:40.843Z,45.92
2018-03-28T12:04:41.294Z,45.83
2018-03-28T12:05:41.740Z,45.81
2018-03-28T12:06:42.214Z,45.86
2018-03-28T12:07:42.682Z,45.96
2018-03-28T12:08:43.363Z,46.07
2018-03-28T12:09:43.638Z,46.06
2018-03-28T12:10:44.111Z,46.15
2018-03-28T12:11:44.583Z,46.11
2018-03-28T12:12:45.060Z,46.17
2018-03-28T12:14:46.005Z,46.17
2018-03-28T12:15:46.481Z,46.09
2018-03-28T12:17:47.423Z,45.94
2018-03-28T12:18:59.895Z,46.02
2018-03-28T12:19:48.376Z,46.00
2018-03-28T12:20:48.854Z,45.93
2018-03-28T12:21:49.322Z,45.92
2018-03-28T12:22:49.799Z,45.97
2018-03-28T12:24:50.746Z,45.90
2018-03-28T12:25:51.224Z,45.88
2018-03-28T12:26:51.696Z,45.96
2018-03-28T12:27:52.171Z,45.95
2018-03-28T12:29:53.322Z,45.97
2018-03-28T12:30:53.589Z,45.92
2018-03-28T12:31:54.067Z,45.91
2018-03-28T12:32:54.543Z,45.91
2018-03-28T12:33:55.015Z,46.03
2018-03-28T12:34:55.742Z,46.10
2018-03-28T12:35:55.965Z,46.17
2018-03-28T12:36:56.438Z,46.18
2018-03-28T12:38:57.387Z,46.05
2018-03-28T12:39:57.864Z,46.13
2018-03-28T12:40:58.536Z,46.19
2018-03-28T12:42:59.285Z,46.26
2018-03-28T12:43:59.764Z,46.09
2018-03-28T12:45:00.284Z,46.09
2018-03-28T12:46:00.707Z,46.08
2018-03-28T12:47:01.181Z,45.98
2018-03-28T12:48:01.656Z,45.87
2018-03-28T12:49:02.141Z,45.92
2018-03-28T12:50:02.719Z,45.88
2018-03-28T12:51:03.280Z,45.84
2018-03-28T12:52:03.553Z,45.83
2018-03-28T12:53:04.052Z,45.93
2018-03-28T12:54:04.943Z,46.11
2018-03-28T12:55:05.064Z,46.31
2018-03-28T12:56:05.450Z,46.46
2018-03-28T12:57:05.928Z,46.63
2018-03-28T13:00:07.397Z,47.25
2018-03-28T13:01:07.820Z,47.44
2018-03-28T13:02:08.295Z,47.68
2018-03-28T13:03:08.767Z,47.96
2018-03-28T13:04:09.287Z,48.22
2018-03-28T13:05:09.710Z,48.57
2018-03-28T13:06:10.188Z,48.83
2018-03-28T13:08:11.132Z,49.36
2018-03-28T13:09:11.606Z,49.68
2018-03-28T13:10:12.104Z,49.99
2018-03-28T13:11:12.543Z,50.34
2018-03-28T13:12:13.021Z,50.68
2018-03-28T13:13:13.492Z,50.93
2018-03-28T13:14:13.963Z,51.20
2018-03-28T13:16:14.900Z,51.62
2018-03-28T13:17:15.375Z,51.75
2018-03-28T13:19:16.313Z,52.10
2018-03-28T13:20:16.838Z,52.21
2018-03-28T13:21:17.258Z,52.26
2018-03-28T13:22:17.731Z,52.32
2018-03-28T13:23:18.199Z,52.36
2018-03-28T13:24:18.671Z,52.34
2018-03-28T13:25:19.594Z,52.27
2018-03-28T13:26:19.608Z,52.16
2018-03-28T13:27:20.073Z,52.11
2018-03-28T13:28:20.550Z,52.04
2018-03-28T13:29:21.020Z,51.88
2018-03-28T13:30:21.491Z,51.64
2018-03-28T13:31:21.954Z,51.48
2018-03-28T13:35:23.896Z,50.96
2018-03-28T13:36:24.310Z,50.77
2018-03-28T13:37:24.781Z,50.63
2018-03-28T13:38:25.255Z,50.50
2018-03-28T13:39:25.722Z,50.40
2018-03-28T13:40:26.397Z,50.34
2018-03-28T13:41:26.663Z,50.28
2018-03-28T13:42:27.136Z,50.17
2018-03-28T13:43:27.605Z,50.08
2018-03-28T13:44:28.079Z,50.08
2018-03-28T13:45:28.601Z,49.97
2018-03-28T13:46:29.221Z,49.84
2018-03-28T13:47:29.692Z,49.67
2018-03-28T13:48:29.962Z,49.53
2018-03-28T13:49:30.432Z,49.42
2018-03-28T13:51:31.425Z,49.22
2018-03-28T13:53:32.315Z,49.12
2018-03-28T13:54:32.791Z,48.99
2018-03-28T13:57:46.249Z,48.69
2018-03-28T13:58:34.678Z,48.76
2018-03-28T13:59:35.149Z,48.73
2018-03-28T14:00:35.621Z,48.68
2018-03-28T14:01:36.095Z,48.68
2018-03-28T14:02:36.568Z,48.63
2018-03-28T14:03:37.040Z,48.52
2018-03-28T14:04:37.512Z,48.43
2018-03-28T14:05:37.985Z,48.37
2018-03-28T14:06:38.459Z,48.27
2018-03-28T14:07:38.931Z,48.17
2018-03-28T14:09:39.875Z,48.11
2018-03-28T14:10:40.348Z,48.05
2018-03-28T14:12:41.340Z,47.94
2018-03-28T14:13:41.769Z,47.83
2018-03-28T14:14:42.442Z,47.78
2018-03-28T14:15:42.712Z,47.69
2018-03-28T14:16:43.185Z,47.59
2018-03-28T14:17:43.709Z,47.50
2018-03-28T14:18:44.133Z,47.47
2018-03-28T14:19:44.605Z,47.46
2018-03-28T14:20:45.080Z,47.40
2018-03-28T14:21:45.566Z,47.38
2018-03-28T14:22:46.022Z,47.39
2018-03-28T14:23:46.706Z,47.38
2018-03-28T14:25:47.446Z,47.32
2018-03-28T14:27:49.588Z,47.21
2018-03-28T14:28:48.868Z,47.22
2018-03-28T14:29:49.343Z,47.17
2018-03-28T14:30:49.809Z,47.11
2018-03-28T14:31:50.288Z,47.04
2018-03-28T14:33:51.239Z,47.07
2018-03-28T14:34:51.710Z,47.07
2018-03-28T14:35:52.385Z,47.07
2018-03-28T14:37:53.126Z,47.04
2018-03-28T14:39:54.080Z,47.01
2018-03-28T14:40:54.555Z,46.96
2018-03-28T14:41:55.234Z,46.88
2018-03-28T14:42:55.497Z,46.81
2018-03-28T14:43:56.178Z,46.79
2018-03-28T14:44:56.450Z,46.81
2018-03-28T14:45:56.931Z,46.74
2018-03-28T14:46:57.401Z,46.67
2018-03-28T14:47:57.873Z,46.65
2018-03-28T14:48:58.347Z,46.62
2018-03-28T14:49:58.822Z,46.71
2018-03-28T14:50:59.294Z,46.86
2018-03-28T14:51:59.977Z,46.98
2018-03-28T14:54:00.719Z,47.12
2018-03-28T14:55:01.196Z,47.31
2018-03-28T14:56:01.668Z,47.47
2018-03-28T14:57:02.143Z,47.68
2018-03-28T14:58:02.613Z,47.89
2018-03-28T14:59:03.090Z,48.19
2018-03-28T15:00:03.569Z,48.49
2018-03-28T15:02:04.510Z,49.06
2018-03-28T15:03:05.035Z,49.42
2018-03-28T15:04:05.450Z,49.75
2018-03-28T15:05:05.929Z,50.07
2018-03-28T15:06:06.399Z,50.26
2018-03-28T15:08:07.344Z,50.76
2018-03-28T15:09:07.816Z,51.00
2018-03-28T15:10:08.289Z,51.21
2018-03-28T15:11:08.759Z,51.39
2018-03-28T15:12:09.231Z,51.54
2018-03-28T15:13:09.747Z,51.69
2018-03-28T15:14:10.167Z,51.76
2018-03-28T15:15:10.845Z,51.85
2018-03-28T15:16:11.114Z,51.94
2018-03-28T15:17:11.588Z,51.89
2018-03-28T15:18:12.106Z,51.83
2018-03-28T15:19:12.524Z,51.77
2018-03-28T15:20:12.996Z,51.70
2018-03-28T15:22:13.940Z,51.56
2018-03-28T15:23:26.093Z,51.39
2018-03-28T15:25:15.347Z,51.10
2018-03-28T15:26:15.850Z,51.01
2018-03-28T15:27:16.286Z,50.88
2018-03-28T15:28:16.808Z,50.80
2018-03-28T15:30:17.696Z,50.64
2018-03-28T15:31:18.169Z,50.49
2018-03-28T15:32:18.639Z,50.33
2018-03-28T15:33:19.106Z,50.18
2018-03-28T15:34:19.584Z,50.04
2018-03-28T15:35:20.051Z,49.90
2018-03-28T15:36:20.521Z,49.81
2018-03-28T15:37:20.995Z,49.73
2018-03-28T15:38:21.462Z,49.59
2018-03-28T15:39:21.929Z,49.44
2018-03-28T15:40:22.406Z,49.25
2018-03-28T15:41:22.875Z,49.00
2018-03-28T15:42:23.349Z,48.91
2018-03-28T15:43:23.814Z,48.78
2018-03-28T15:44:24.290Z,48.63
2018-03-28T15:45:24.762Z,48.48
2018-03-28T15:46:25.234Z,48.37
2018-03-28T15:47:25.706Z,48.30
2018-03-28T15:49:26.653Z,48.09
2018-03-28T15:50:27.319Z,47.88
2018-03-28T15:53:28.739Z,47.69
2018-03-28T17:45:02.506Z,44.89
2018-03-28T17:47:01.482Z,44.84
2018-03-28T17:49:02.425Z,44.82
2018-03-28T17:50:02.900Z,44.80
2018-03-28T18:49:52.567Z,45.19
2018-03-28T18:51:54.166Z,45.21
2018-03-28T18:52:53.645Z,45.22
2018-03-28T18:53:54.108Z,45.18
2018-03-28T18:54:54.188Z,45.19
2018-03-28T18:55:55.207Z,45.28
2018-03-28T18:56:55.137Z,45.33
2018-03-28T18:57:55.813Z,45.35
2018-03-28T18:58:56.084Z,45.33
2018-03-28T18:59:56.562Z,45.29
2018-03-28T19:00:57.032Z,45.21
2018-03-28T19:01:57.506Z,45.30
2018-03-28T19:02:57.979Z,45.31
2018-03-28T19:03:58.503Z,45.33
2018-03-28T19:04:58.930Z,45.34
2018-03-28T19:05:59.400Z,45.38
2018-03-28T19:06:59.873Z,45.45
2018-03-28T19:08:00.689Z,45.42
2018-03-28T19:09:00.871Z,45.37
2018-03-28T19:10:01.297Z,45.35
2018-03-28T19:11:01.768Z,45.43
2018-03-28T19:12:02.242Z,45.42
2018-03-28T19:13:02.716Z,45.44
2018-03-28T19:14:03.241Z,45.36
2018-03-28T19:15:03.666Z,45.33
2018-03-28T19:16:04.137Z,45.41
2018-03-28T19:17:04.611Z,45.36
2018-03-28T19:18:05.086Z,45.30
2018-03-28T19:19:05.611Z,45.31
2018-03-28T19:20:06.373Z,45.38
2018-03-28T19:21:06.509Z,45.35
2018-03-28T19:22:06.980Z,45.38
2018-03-28T19:23:07.454Z,45.37
2018-03-28T19:24:07.979Z,45.41
2018-03-28T19:25:08.439Z,45.37
2018-03-28T19:26:08.876Z,45.40
2018-03-28T19:27:09.348Z,45.40
2018-03-28T19:28:09.823Z,45.45
2018-03-28T19:29:10.347Z,45.43
2018-03-28T19:30:10.770Z,45.38
2018-03-28T19:31:11.248Z,45.28
2018-03-28T19:32:11.718Z,45.28
2018-03-28T19:33:12.192Z,45.26
2018-03-28T19:34:12.666Z,45.25
2018-03-28T19:35:13.139Z,45.23
2018-03-28T19:36:13.611Z,45.23
2018-03-28T19:37:14.087Z,45.26
2018-03-28T19:38:14.568Z,45.29
2018-03-28T19:39:15.083Z,45.28
2018-03-28T19:40:15.512Z,45.31
2018-03-28T19:41:15.981Z,45.35
2018-03-28T19:42:16.456Z,45.33
2018-03-28T19:43:16.930Z,45.32
2018-03-28T19:44:17.406Z,45.25
2018-03-28T19:45:17.877Z,45.14
2018-03-28T19:46:18.382Z,45.16
2018-03-28T19:47:18.829Z,45.19
2018-03-28T19:48:19.296Z,45.17
2018-03-28T19:49:19.823Z,45.18
2018-03-28T19:50:20.247Z,45.17
2018-03-28T19:51:20.719Z,45.15
2018-03-28T19:52:21.194Z,45.26
2018-03-28T19:53:21.668Z,45.20
2018-03-28T19:54:22.144Z,45.20
2018-03-28T19:55:22.615Z,45.21
2018-03-28T19:56:23.088Z,45.24
2018-03-28T19:57:23.563Z,45.25
2018-03-28T19:58:24.043Z,45.24
2018-03-28T19:59:24.561Z,45.27
2018-03-28T20:00:24.989Z,45.25
2018-03-28T20:01:25.457Z,45.29
2018-03-28T20:02:25.933Z,45.31
2018-03-28T20:03:26.405Z,45.32
2018-03-28T20:04:26.878Z,45.27
2018-03-28T20:05:27.352Z,45.25
2018-03-28T20:06:27.826Z,45.24
2018-03-28T20:07:28.302Z,45.31
2018-03-28T20:08:28.775Z,45.29
2018-03-28T20:09:29.250Z,45.33
2018-03-28T20:10:29.722Z,45.33
2018-03-28T20:11:30.193Z,45.34
2018-03-28T20:12:30.668Z,45.36
2018-03-28T20:13:31.141Z,45.39
2018-03-28T20:14:31.668Z,45.37
2018-03-28T20:15:32.090Z,45.31
2018-03-28T20:16:32.563Z,45.29
2018-03-28T20:17:33.038Z,45.32
2018-03-28T20:18:33.514Z,45.42
2018-03-28T20:19:33.983Z,45.50
2018-03-28T20:20:34.457Z,45.47
2018-03-28T20:21:34.931Z,45.47
2018-03-28T20:22:35.407Z,45.55
2018-03-28T20:23:35.879Z,45.52
2018-03-28T20:24:36.353Z,45.49
2018-03-28T20:25:36.831Z,45.51
2018-03-28T20:26:37.301Z,45.45
2018-03-28T20:27:37.772Z,45.41
2018-03-28T20:29:38.723Z,45.31
2018-03-28T20:30:39.195Z,45.28